sensor_id;sensor_type;location;lat;lon;timestamp;pressure;altitude;pressure_sealevel;temperature;humidity
72892;BME280;61032;50.782;6.818;2024-03-29T00:00:09;98385.63;;;8.71;61.75
72892;BME280;61032;50.782;6.818;2024-03-29T00:01:10;98377.00;;;8.69;61.84
72892;BME280;61032;50.782;6.818;2024-03-29T00:02:10;98375.84;;;8.70;62.06
72892;BME280;61032;50.782;6.818;2024-03-29T00:03:10;98376.63;;;8.71;62.02
72892;BME280;61032;50.782;6.818;2024-03-29T00:04:11;98377.41;;;8.71;62.07
72892;BME280;61032;50.782;6.818;2024-03-29T00:05:11;98374.69;;;8.71;61.89
72892;BME280;61032;50.782;6.818;2024-03-29T00:06:12;98367.19;;;8.68;61.63
72892;BME280;61032;50.782;6.818;2024-03-29T00:07:12;98367.09;;;8.61;61.98
72892;BME280;61032;50.782;6.818;2024-03-29T00:08:13;98370.19;;;8.59;61.93
72892;BME280;61032;50.782;6.818;2024-03-29T00:09:13;98366.31;;;8.60;61.92
72892;BME280;61032;50.782;6.818;2024-03-29T00:10:14;98365.19;;;8.65;62.03
72892;BME280;61032;50.782;6.818;2024-03-29T00:11:14;98357.78;;;8.66;61.77
72892;BME280;61032;50.782;6.818;2024-03-29T00:12:14;98352.25;;;8.62;62.03
72892;BME280;61032;50.782;6.818;2024-03-29T00:13:15;98349.88;;;8.60;61.83
72892;BME280;61032;50.782;6.818;2024-03-29T00:14:15;98343.59;;;8.60;61.89
72892;BME280;61032;50.782;6.818;2024-03-29T00:15:16;98343.19;;;8.58;61.96
72892;BME280;61032;50.782;6.818;2024-03-29T00:16:16;98340.44;;;8.58;62.29
72892;BME280;61032;50.782;6.818;2024-03-29T00:17:17;98340.44;;;8.58;62.15
72892;BME280;61032;50.782;6.818;2024-03-29T00:18:18;98337.69;;;8.58;61.94
72892;BME280;61032;50.782;6.818;2024-03-29T00:19:19;98338.84;;;8.57;62.04
72892;BME280;61032;50.782;6.818;2024-03-29T00:20:19;98340.44;;;8.58;62.05
72892;BME280;61032;50.782;6.818;2024-03-29T00:21:21;98333.50;;;8.64;61.90
72892;BME280;61032;50.782;6.818;2024-03-29T00:22:21;98338.19;;;8.64;61.75
72892;BME280;61032;50.782;6.818;2024-03-29T00:23:22;98336.22;;;8.64;61.70
72892;BME280;61032;50.782;6.818;2024-03-29T00:24:22;98348.34;;;8.63;61.88
72892;BME280;61032;50.782;6.818;2024-03-29T00:25:23;98351.50;;;8.65;61.92
72892;BME280;61032;50.782;6.818;2024-03-29T00:26:23;98343.66;;;8.64;61.76
72892;BME280;61032;50.782;6.818;2024-03-29T00:27:23;98346.44;;;8.67;61.25
72892;BME280;61032;50.782;6.818;2024-03-29T00:28:26;98348.09;;;8.72;61.55
72892;BME280;61032;50.782;6.818;2024-03-29T00:29:27;98344.94;;;8.73;61.50
72892;BME280;61032;50.782;6.818;2024-03-29T00:30:28;98340.25;;;8.74;61.47
72892;BME280;61032;50.782;6.818;2024-03-29T00:31:28;98336.72;;;8.73;61.05
72892;BME280;61032;50.782;6.818;2024-03-29T00:32:28;98341.44;;;8.73;60.96
72892;BME280;61032;50.782;6.818;2024-03-29T00:33:29;98331.25;;;8.73;61.26
72892;BME280;61032;50.782;6.818;2024-03-29T00:34:30;98337.91;;;8.72;61.10
72892;BME280;61032;50.782;6.818;2024-03-29T00:35:30;98332.03;;;8.70;61.01
72892;BME280;61032;50.782;6.818;2024-03-29T00:36:31;98319.97;;;8.78;60.89
72892;BME280;61032;50.782;6.818;2024-03-29T00:37:31;98338.47;;;8.85;60.47
72892;BME280;61032;50.782;6.818;2024-03-29T00:38:32;98338.00;;;8.79;60.57
72892;BME280;61032;50.782;6.818;2024-03-29T00:39:32;98350.06;;;8.75;60.48
72892;BME280;61032;50.782;6.818;2024-03-29T00:40:32;98331.66;;;8.75;60.59
72892;BME280;61032;50.782;6.818;2024-03-29T00:41:33;98335.19;;;8.72;60.78
72892;BME280;61032;50.782;6.818;2024-03-29T00:42:33;98343.75;;;8.71;60.95
72892;BME280;61032;50.782;6.818;2024-03-29T00:43:34;98346.13;;;8.72;60.99
72892;BME280;61032;50.782;6.818;2024-03-29T00:44:34;98357.97;;;8.80;60.71
72892;BME280;61032;50.782;6.818;2024-03-29T00:45:36;98355.16;;;8.76;60.80
72892;BME280;61032;50.782;6.818;2024-03-29T00:46:36;98367.34;;;8.79;60.74
72892;BME280;61032;50.782;6.818;2024-03-29T00:47:37;98370.88;;;8.79;60.76
72892;BME280;61032;50.782;6.818;2024-03-29T00:48:37;98380.28;;;8.82;60.94
72892;BME280;61032;50.782;6.818;2024-03-29T00:49:38;98380.78;;;8.87;60.42
72892;BME280;61032;50.782;6.818;2024-03-29T00:50:38;98385.78;;;8.82;60.76
72892;BME280;61032;50.782;6.818;2024-03-29T00:51:39;98384.56;;;8.79;60.55
72892;BME280;61032;50.782;6.818;2024-03-29T00:52:40;98386.03;;;8.73;61.02
72892;BME280;61032;50.782;6.818;2024-03-29T00:53:40;98381.41;;;8.77;60.96
72892;BME280;61032;50.782;6.818;2024-03-29T00:54:41;98383.78;;;8.79;60.80
72892;BME280;61032;50.782;6.818;2024-03-29T00:55:41;98385.72;;;8.78;61.02
72892;BME280;61032;50.782;6.818;2024-03-29T00:56:41;98384.63;;;8.83;60.75
72892;BME280;61032;50.782;6.818;2024-03-29T00:57:42;98386.19;;;8.84;60.60
72892;BME280;61032;50.782;6.818;2024-03-29T00:58:44;98380.28;;;8.82;61.04
72892;BME280;61032;50.782;6.818;2024-03-29T00:59:46;98368.88;;;8.76;61.14
72892;BME280;61032;50.782;6.818;2024-03-29T01:00:46;98366.53;;;8.78;61.24
72892;BME280;61032;50.782;6.818;2024-03-29T01:01:47;98371.22;;;8.78;61.16
72892;BME280;61032;50.782;6.818;2024-03-29T01:02:47;98370.88;;;8.79;61.11
72892;BME280;61032;50.782;6.818;2024-03-29T01:03:48;98365.00;;;8.81;61.20
72892;BME280;61032;50.782;6.818;2024-03-29T01:04:48;98362.28;;;8.81;61.36
72892;BME280;61032;50.782;6.818;2024-03-29T01:05:48;98364.28;;;8.84;60.91
72892;BME280;61032;50.782;6.818;2024-03-29T01:06:49;98360.44;;;8.88;60.97
72892;BME280;61032;50.782;6.818;2024-03-29T01:07:49;98354.59;;;8.90;60.90
72892;BME280;61032;50.782;6.818;2024-03-29T01:08:50;98338.09;;;8.86;61.14
72892;BME280;61032;50.782;6.818;2024-03-29T01:09:51;98324.34;;;8.83;61.15
72892;BME280;61032;50.782;6.818;2024-03-29T01:10:51;98332.19;;;8.84;61.11
72892;BME280;61032;50.782;6.818;2024-03-29T01:11:51;98349.00;;;8.83;61.17
72892;BME280;61032;50.782;6.818;2024-03-29T01:12:52;98361.91;;;8.82;61.46
72892;BME280;61032;50.782;6.818;2024-03-29T01:13:52;98362.66;;;8.79;61.24
72892;BME280;61032;50.782;6.818;2024-03-29T01:14:53;98348.22;;;8.82;61.32
72892;BME280;61032;50.782;6.818;2024-03-29T01:15:53;98356.44;;;8.82;61.51
72892;BME280;61032;50.782;6.818;2024-03-29T01:16:54;98345.88;;;8.84;61.39
72892;BME280;61032;50.782;6.818;2024-03-29T01:17:54;98346.63;;;8.81;61.34
72892;BME280;61032;50.782;6.818;2024-03-29T01:18:54;98334.97;;;8.88;61.35
72892;BME280;61032;50.782;6.818;2024-03-29T01:19:55;98335.78;;;8.88;61.41
72892;BME280;61032;50.782;6.818;2024-03-29T01:20:55;98336.03;;;8.80;61.72
72892;BME280;61032;50.782;6.818;2024-03-29T01:21:56;98334.88;;;8.81;61.73
72892;BME280;61032;50.782;6.818;2024-03-29T01:22:56;98342.31;;;8.80;61.62
72892;BME280;61032;50.782;6.818;2024-03-29T01:23:57;98343.47;;;8.79;61.60
72892;BME280;61032;50.782;6.818;2024-03-29T01:24:57;98336.78;;;8.77;61.62
72892;BME280;61032;50.782;6.818;2024-03-29T01:25:58;98339.16;;;8.78;61.51
72892;BME280;61032;50.782;6.818;2024-03-29T01:26:58;98336.03;;;8.80;61.73
72892;BME280;61032;50.782;6.818;2024-03-29T01:27:59;98339.94;;;8.79;61.64
72892;BME280;61032;50.782;6.818;2024-03-29T01:28:59;98345.03;;;8.80;61.71
72892;BME280;61032;50.782;6.818;2024-03-29T01:30:00;98347.06;;;8.83;61.50
72892;BME280;61032;50.782;6.818;2024-03-29T01:31:00;98333.34;;;8.83;61.37
72892;BME280;61032;50.782;6.818;2024-03-29T01:32:01;98333.34;;;8.83;61.13
72892;BME280;61032;50.782;6.818;2024-03-29T01:33:01;98330.25;;;8.85;61.12
72892;BME280;61032;50.782;6.818;2024-03-29T01:34:02;98349.84;;;8.87;60.93
72892;BME280;61032;50.782;6.818;2024-03-29T01:35:03;98351.41;;;8.88;61.11
72892;BME280;61032;50.782;6.818;2024-03-29T01:36:04;98344.84;;;8.92;60.84
72892;BME280;61032;50.782;6.818;2024-03-29T01:37:05;98342.09;;;8.92;60.95
72892;BME280;61032;50.782;6.818;2024-03-29T01:38:05;98336.63;;;8.96;60.72
72892;BME280;61032;50.782;6.818;2024-03-29T01:39:05;98334.31;;;8.98;60.36
72892;BME280;61032;50.782;6.818;2024-03-29T01:40:09;98331.63;;;9.02;60.37
72892;BME280;61032;50.782;6.818;2024-03-29T01:41:10;98345.75;;;9.04;60.10
72892;BME280;61032;50.782;6.818;2024-03-29T01:42:11;98352.06;;;9.08;60.27
72892;BME280;61032;50.782;6.818;2024-03-29T01:43:11;98353.63;;;9.09;60.01
72892;BME280;61032;50.782;6.818;2024-03-29T01:44:12;98358.69;;;9.07;59.92
72892;BME280;61032;50.782;6.818;2024-03-29T01:45:12;98362.59;;;9.06;60.03
72892;BME280;61032;50.782;6.818;2024-03-29T01:46:13;98363.38;;;9.06;60.38
72892;BME280;61032;50.782;6.818;2024-03-29T01:47:13;98369.28;;;9.08;60.36
72892;BME280;61032;50.782;6.818;2024-03-29T01:48:15;98364.56;;;9.05;60.43
72892;BME280;61032;50.782;6.818;2024-03-29T01:49:16;98355.53;;;9.05;60.44
72892;BME280;61032;50.782;6.818;2024-03-29T01:50:17;98351.28;;;9.07;60.25
72892;BME280;61032;50.782;6.818;2024-03-29T01:51:20;98343.38;;;9.02;60.57
72892;BME280;61032;50.782;6.818;2024-03-29T01:52:22;98336.72;;;9.03;60.47
72892;BME280;61032;50.782;6.818;2024-03-29T01:53:23;98333.25;;;9.06;60.40
72892;BME280;61032;50.782;6.818;2024-03-29T01:54:24;98334.34;;;9.02;60.32
72892;BME280;61032;50.782;6.818;2024-03-29T01:55:25;98330.09;;;9.04;60.27
72892;BME280;61032;50.782;6.818;2024-03-29T01:56:26;98321.88;;;9.04;60.26
72892;BME280;61032;50.782;6.818;2024-03-29T01:57:27;98319.50;;;9.03;60.43
72892;BME280;61032;50.782;6.818;2024-03-29T01:58:28;98325.44;;;9.08;60.37
72892;BME280;61032;50.782;6.818;2024-03-29T01:59:29;98327.81;;;9.10;60.47
72892;BME280;61032;50.782;6.818;2024-03-29T02:00:30;98325.81;;;9.07;60.45
72892;BME280;61032;50.782;6.818;2024-03-29T02:01:32;98331.28;;;9.07;60.62
72892;BME280;61032;50.782;6.818;2024-03-29T02:02:33;98324.22;;;9.06;60.91
72892;BME280;61032;50.782;6.818;2024-03-29T02:03:33;98311.31;;;9.06;61.14
72892;BME280;61032;50.782;6.818;2024-03-29T02:04:35;98314.47;;;9.08;61.33
72892;BME280;61032;50.782;6.818;2024-03-29T02:05:36;98311.38;;;9.10;61.19
72892;BME280;61032;50.782;6.818;2024-03-29T02:06:40;98305.47;;;9.08;61.26
72892;BME280;61032;50.782;6.818;2024-03-29T02:07:41;98300.41;;;9.10;61.54
72892;BME280;61032;50.782;6.818;2024-03-29T02:08:42;98291.72;;;9.04;61.51
72892;BME280;61032;50.782;6.818;2024-03-29T02:09:43;98288.94;;;9.01;61.97
72892;BME280;61032;50.782;6.818;2024-03-29T02:10:45;98290.84;;;8.96;62.23
72892;BME280;61032;50.782;6.818;2024-03-29T02:11:47;98300.22;;;8.95;61.94
72892;BME280;61032;50.782;6.818;2024-03-29T02:12:47;98292.41;;;8.98;61.85
72892;BME280;61032;50.782;6.818;2024-03-29T02:13:49;98299.47;;;8.99;61.85
72892;BME280;61032;50.782;6.818;2024-03-29T02:14:50;98293.94;;;8.95;62.15
72892;BME280;61032;50.782;6.818;2024-03-29T02:15:50;98296.66;;;8.91;62.10
72892;BME280;61032;50.782;6.818;2024-03-29T02:16:50;98297.03;;;8.90;62.21
72892;BME280;61032;50.782;6.818;2024-03-29T02:17:51;98285.72;;;8.91;62.34
72892;BME280;61032;50.782;6.818;2024-03-29T02:18:51;98284.56;;;8.96;62.22
72892;BME280;61032;50.782;6.818;2024-03-29T02:19:52;98280.66;;;8.93;61.99
72892;BME280;61032;50.782;6.818;2024-03-29T02:20:52;98272.44;;;8.93;62.37
72892;BME280;61032;50.782;6.818;2024-03-29T02:21:56;98277.91;;;8.97;62.01
72892;BME280;61032;50.782;6.818;2024-03-29T02:23:14;98273.59;;;8.96;62.09
72892;BME280;61032;50.782;6.818;2024-03-29T02:24:16;98270.88;;;8.96;62.14
72892;BME280;61032;50.782;6.818;2024-03-29T02:25:17;98270.84;;;8.92;62.10
72892;BME280;61032;50.782;6.818;2024-03-29T02:26:18;98274.75;;;8.91;62.63
72892;BME280;61032;50.782;6.818;2024-03-29T02:27:19;98286.44;;;8.88;62.81
72892;BME280;61032;50.782;6.818;2024-03-29T02:28:22;98283.72;;;8.88;62.49
72892;BME280;61032;50.782;6.818;2024-03-29T02:29:23;98280.50;;;8.83;62.72
72892;BME280;61032;50.782;6.818;2024-03-29T02:30:24;98284.00;;;8.80;62.55
72892;BME280;61032;50.782;6.818;2024-03-29T02:31:24;98275.78;;;8.80;62.56
72892;BME280;61032;50.782;6.818;2024-03-29T02:32:25;98270.34;;;8.83;62.53
72892;BME280;61032;50.782;6.818;2024-03-29T02:33:25;98262.16;;;8.87;62.61
72892;BME280;61032;50.782;6.818;2024-03-29T02:34:25;98264.06;;;8.83;62.51
72892;BME280;61032;50.782;6.818;2024-03-29T02:35:27;98264.41;;;8.78;62.53
72892;BME280;61032;50.782;6.818;2024-03-29T02:36:28;98270.25;;;8.76;62.73
72892;BME280;61032;50.782;6.818;2024-03-29T02:37:29;98271.81;;;8.77;62.50
72892;BME280;61032;50.782;6.818;2024-03-29T02:38:29;98273.03;;;8.80;62.30
72892;BME280;61032;50.782;6.818;2024-03-29T02:39:30;98275.03;;;8.83;62.73
72892;BME280;61032;50.782;6.818;2024-03-29T02:40:30;98271.44;;;8.79;62.57
72892;BME280;61032;50.782;6.818;2024-03-29T02:41:31;98262.88;;;8.80;62.71
72892;BME280;61032;50.782;6.818;2024-03-29T02:42:32;98256.53;;;8.76;62.54
72892;BME280;61032;50.782;6.818;2024-03-29T02:43:32;98259.28;;;8.76;62.56
72892;BME280;61032;50.782;6.818;2024-03-29T02:44:33;98269.50;;;8.79;62.57
72892;BME280;61032;50.782;6.818;2024-03-29T02:45:33;98263.22;;;8.79;62.46
72892;BME280;61032;50.782;6.818;2024-03-29T02:46:35;98270.25;;;8.76;62.59
72892;BME280;61032;50.782;6.818;2024-03-29T02:47:35;98262.75;;;8.73;62.44
72892;BME280;61032;50.782;6.818;2024-03-29T02:48:36;98258.47;;;8.72;62.52
72892;BME280;61032;50.782;6.818;2024-03-29T02:49:36;98265.50;;;8.70;62.60
72892;BME280;61032;50.782;6.818;2024-03-29T02:50:37;98262.75;;;8.70;62.72
72892;BME280;61032;50.782;6.818;2024-03-29T02:51:37;98254.56;;;8.73;62.96
72892;BME280;61032;50.782;6.818;2024-03-29T02:52:37;98250.66;;;8.74;62.45
72892;BME280;61032;50.782;6.818;2024-03-29T02:53:38;98254.56;;;8.73;62.62
72892;BME280;61032;50.782;6.818;2024-03-29T02:54:40;98261.22;;;8.72;62.64
72892;BME280;61032;50.782;6.818;2024-03-29T02:55:43;98252.59;;;8.74;62.80
72892;BME280;61032;50.782;6.818;2024-03-29T02:56:44;98253.38;;;8.74;62.17
72892;BME280;61032;50.782;6.818;2024-03-29T02:57:44;98250.66;;;8.74;62.42
72892;BME280;61032;50.782;6.818;2024-03-29T02:58:45;98251.06;;;8.76;62.55
72892;BME280;61032;50.782;6.818;2024-03-29T02:59:45;98244.47;;;8.81;62.55
72892;BME280;61032;50.782;6.818;2024-03-29T03:00:45;98254.28;;;8.82;62.35
72892;BME280;61032;50.782;6.818;2024-03-29T03:01:46;98245.25;;;8.81;62.39
72892;BME280;61032;50.782;6.818;2024-03-29T03:02:46;98255.06;;;8.82;62.17
72892;BME280;61032;50.782;6.818;2024-03-29T03:03:47;98250.00;;;8.84;61.94
72892;BME280;61032;50.782;6.818;2024-03-29T03:04:47;98252.38;;;8.86;62.09
72892;BME280;61032;50.782;6.818;2024-03-29T03:05:47;98248.03;;;8.85;62.10
72892;BME280;61032;50.782;6.818;2024-03-29T03:06:48;98246.88;;;8.86;62.26
72892;BME280;61032;50.782;6.818;2024-03-29T03:07:48;98254.72;;;8.87;62.23
72892;BME280;61032;50.782;6.818;2024-03-29T03:09:09;98257.91;;;8.89;62.18
72892;BME280;61032;50.782;6.818;2024-03-29T03:10:28;98261.78;;;8.88;62.36
72892;BME280;61032;50.782;6.818;2024-03-29T03:12:03;98270.44;;;8.90;62.25
72892;BME280;61032;50.782;6.818;2024-03-29T03:13:04;98263.00;;;8.91;62.17
72892;BME280;61032;50.782;6.818;2024-03-29T03:14:04;98270.81;;;8.89;62.53
72892;BME280;61032;50.782;6.818;2024-03-29T03:15:05;98278.66;;;8.90;62.34
72892;BME280;61032;50.782;6.818;2024-03-29T03:16:06;98270.81;;;8.89;62.30
72892;BME280;61032;50.782;6.818;2024-03-29T03:17:06;98275.50;;;8.88;62.15
72892;BME280;61032;50.782;6.818;2024-03-29T03:18:07;98274.75;;;8.91;61.85
72892;BME280;61032;50.782;6.818;2024-03-29T03:19:07;98279.88;;;8.96;61.81
72892;BME280;61032;50.782;6.818;2024-03-29T03:20:08;98281.09;;;8.99;61.70
72892;BME280;61032;50.782;6.818;2024-03-29T03:21:09;98283.03;;;8.99;61.27
72892;BME280;61032;50.782;6.818;2024-03-29T03:22:09;98274.81;;;8.99;61.46
72892;BME280;61032;50.782;6.818;2024-03-29T03:23:10;98258.75;;;8.97;61.47
72892;BME280;61032;50.782;6.818;2024-03-29T03:24:10;98253.25;;;8.93;61.80
72892;BME280;61032;50.782;6.818;2024-03-29T03:25:12;98249.31;;;8.94;61.68
72892;BME280;61032;50.782;6.818;2024-03-29T03:26:12;98253.31;;;9.01;61.40
72892;BME280;61032;50.782;6.818;2024-03-29T03:27:13;98251.72;;;9.00;61.20
72892;BME280;61032;50.782;6.818;2024-03-29T03:28:13;98254.41;;;8.96;61.33
72892;BME280;61032;50.782;6.818;2024-03-29T03:29:14;98261.84;;;8.92;61.62
72892;BME280;61032;50.782;6.818;2024-03-29T03:30:15;98261.00;;;8.88;61.37
72892;BME280;61032;50.782;6.818;2024-03-29T03:31:15;98253.19;;;8.90;61.76
72892;BME280;61032;50.782;6.818;2024-03-29T03:32:15;98255.16;;;8.89;61.68
72892;BME280;61032;50.782;6.818;2024-03-29T03:33:16;98252.00;;;8.87;61.86
72892;BME280;61032;50.782;6.818;2024-03-29T03:34:16;98249.66;;;8.89;61.83
72892;BME280;61032;50.782;6.818;2024-03-29T03:35:17;98250.41;;;8.86;61.62
72892;BME280;61032;50.782;6.818;2024-03-29T03:36:17;98239.91;;;8.92;61.70
72892;BME280;61032;50.782;6.818;2024-03-29T03:37:17;98246.09;;;8.85;61.91
72892;BME280;61032;50.782;6.818;2024-03-29T03:38:18;98243.34;;;8.85;61.76
72892;BME280;61032;50.782;6.818;2024-03-29T03:39:18;98256.63;;;8.83;62.04
72892;BME280;61032;50.782;6.818;2024-03-29T03:40:18;98251.53;;;8.82;61.77
72892;BME280;61032;50.782;6.818;2024-03-29T03:41:19;98253.06;;;8.79;61.86
72892;BME280;61032;50.782;6.818;2024-03-29T03:42:20;98254.22;;;8.78;61.93
72892;BME280;61032;50.782;6.818;2024-03-29T03:43:20;98252.66;;;8.77;62.05
72892;BME280;61032;50.782;6.818;2024-03-29T03:44:20;98255.81;;;8.79;62.07
72892;BME280;61032;50.782;6.818;2024-03-29T03:45:22;98257.75;;;8.79;62.08
72892;BME280;61032;50.782;6.818;2024-03-29T03:46:22;98256.19;;;8.78;62.20
72892;BME280;61032;50.782;6.818;2024-03-29T03:47:23;98259.34;;;8.80;62.10
72892;BME280;61032;50.782;6.818;2024-03-29T03:48:23;98265.22;;;8.82;62.09
72892;BME280;61032;50.782;6.818;2024-03-29T03:49:23;98257.81;;;8.82;62.09
72892;BME280;61032;50.782;6.818;2024-03-29T03:50:24;98268.72;;;8.79;62.27
72892;BME280;61032;50.782;6.818;2024-03-29T03:51:24;98264.75;;;8.76;62.18
72892;BME280;61032;50.782;6.818;2024-03-29T03:52:24;98265.19;;;8.78;62.40
72892;BME280;61032;50.782;6.818;2024-03-29T03:53:25;98267.19;;;8.81;62.30
72892;BME280;61032;50.782;6.818;2024-03-29T03:54:25;98271.81;;;8.77;62.54
72892;BME280;61032;50.782;6.818;2024-03-29T03:55:26;98261.22;;;8.76;62.30
72892;BME280;61032;50.782;6.818;2024-03-29T03:56:26;98269.47;;;8.76;62.46
72892;BME280;61032;50.782;6.818;2024-03-29T03:57:27;98264.75;;;8.76;62.63
72892;BME280;61032;50.782;6.818;2024-03-29T03:58:27;98267.50;;;8.76;62.59
72892;BME280;61032;50.782;6.818;2024-03-29T03:59:27;98261.59;;;8.74;62.57
72892;BME280;61032;50.782;6.818;2024-03-29T04:00:28;98250.66;;;8.74;62.64
72892;BME280;61032;50.782;6.818;2024-03-29T04:01:28;98254.91;;;8.68;62.69
72892;BME280;61032;50.782;6.818;2024-03-29T04:02:29;98243.94;;;8.68;62.50
72892;BME280;61032;50.782;6.818;2024-03-29T04:03:29;98248.31;;;8.73;62.77
72892;BME280;61032;50.782;6.818;2024-03-29T04:04:30;98247.91;;;8.74;62.92
72892;BME280;61032;50.782;6.818;2024-03-29T04:05:30;98245.16;;;8.74;62.67
72892;BME280;61032;50.782;6.818;2024-03-29T04:06:31;98239.69;;;8.74;62.66
72892;BME280;61032;50.782;6.818;2024-03-29T04:07:32;98243.59;;;8.73;62.90
72892;BME280;61032;50.782;6.818;2024-03-29T04:08:32;98246.44;;;8.80;62.75
72892;BME280;61032;50.782;6.818;2024-03-29T04:09:33;98250.00;;;8.84;62.67
72892;BME280;61032;50.782;6.818;2024-03-29T04:10:37;98245.69;;;8.83;62.45
72892;BME280;61032;50.782;6.818;2024-03-29T04:11:38;98241.41;;;8.86;62.54
72892;BME280;61032;50.782;6.818;2024-03-29T04:12:38;98230.88;;;8.88;62.35
72892;BME280;61032;50.782;6.818;2024-03-29T04:13:39;98221.06;;;8.87;62.35
72892;BME280;61032;50.782;6.818;2024-03-29T04:14:40;98214.75;;;8.83;62.68
72892;BME280;61032;50.782;6.818;2024-03-29T04:15:41;98217.91;;;8.85;63.15
72892;BME280;61032;50.782;6.818;2024-03-29T04:16:41;98210.47;;;8.85;63.25
72892;BME280;61032;50.782;6.818;2024-03-29T04:17:42;98208.53;;;8.86;63.07
72892;BME280;61032;50.782;6.818;2024-03-29T04:18:42;98203.44;;;8.84;63.55
72892;BME280;61032;50.782;6.818;2024-03-29T04:19:42;98217.13;;;8.84;63.80
72892;BME280;61032;50.782;6.818;2024-03-29T04:20:43;98213.22;;;8.85;63.50
72892;BME280;61032;50.782;6.818;2024-03-29T04:21:43;98214.00;;;8.86;63.34
72892;BME280;61032;50.782;6.818;2024-03-29T04:22:43;98207.31;;;8.83;63.64
72892;BME280;61032;50.782;6.818;2024-03-29T04:23:45;98207.75;;;8.85;63.54
72892;BME280;61032;50.782;6.818;2024-03-29T04:24:45;98208.56;;;8.89;63.09
72892;BME280;61032;50.782;6.818;2024-03-29T04:25:56;98205.09;;;8.92;63.13
72892;BME280;61032;50.782;6.818;2024-03-29T04:26:56;98204.66;;;8.90;63.34
72892;BME280;61032;50.782;6.818;2024-03-29T04:28:01;98198.78;;;8.88;63.56
72892;BME280;61032;50.782;6.818;2024-03-29T04:29:01;98216.28;;;8.80;63.53
72892;BME280;61032;50.782;6.818;2024-03-29T04:30:01;98214.81;;;8.86;63.02
72892;BME280;61032;50.782;6.818;2024-03-29T04:31:03;98207.75;;;8.85;63.01
72892;BME280;61032;50.782;6.818;2024-03-29T04:32:04;98204.63;;;8.87;63.12
72892;BME280;61032;50.782;6.818;2024-03-29T04:33:04;98199.16;;;8.87;63.00
72892;BME280;61032;50.782;6.818;2024-03-29T04:34:05;98210.16;;;8.90;62.93
72892;BME280;61032;50.782;6.818;2024-03-29T04:35:06;98201.16;;;8.90;62.72
72892;BME280;61032;50.782;6.818;2024-03-29T04:36:06;98201.16;;;8.90;62.59
72892;BME280;61032;50.782;6.818;2024-03-29T04:37:07;98195.72;;;8.93;62.60
72892;BME280;61032;50.782;6.818;2024-03-29T04:38:07;98192.19;;;8.93;62.79
72892;BME280;61032;50.782;6.818;2024-03-29T04:39:08;98191.78;;;8.94;62.65
72892;BME280;61032;50.782;6.818;2024-03-29T04:40:08;98191.41;;;8.96;62.72
72892;BME280;61032;50.782;6.818;2024-03-29T04:41:09;98193.38;;;8.99;62.66
72892;BME280;61032;50.782;6.818;2024-03-29T04:42:10;98184.00;;;9.00;62.87
72892;BME280;61032;50.782;6.818;2024-03-29T04:43:11;98180.88;;;9.02;62.73
72892;BME280;61032;50.782;6.818;2024-03-29T04:44:13;98182.88;;;9.05;62.39
72892;BME280;61032;50.782;6.818;2024-03-29T04:45:13;98177.41;;;9.05;62.20
72892;BME280;61032;50.782;6.818;2024-03-29T04:46:14;98175.88;;;9.07;62.31
72892;BME280;61032;50.782;6.818;2024-03-29T04:47:15;98174.69;;;9.08;62.07
72892;BME280;61032;50.782;6.818;2024-03-29T04:48:15;98167.31;;;9.12;62.44
72892;BME280;61032;50.782;6.818;2024-03-29T04:49:27;98186.50;;;9.16;62.03
72892;BME280;61032;50.782;6.818;2024-03-29T04:50:39;98198.63;;;9.15;61.48
72892;BME280;61032;50.782;6.818;2024-03-29T04:51:40;98190.81;;;9.17;61.22
72892;BME280;61032;50.782;6.818;2024-03-29T04:52:42;98186.53;;;9.19;61.15
72892;BME280;61032;50.782;6.818;2024-03-29T04:53:42;98184.25;;;9.25;61.35
72892;BME280;61032;50.782;6.818;2024-03-29T04:54:43;98180.34;;;9.26;61.51
72892;BME280;61032;50.782;6.818;2024-03-29T04:55:44;98188.53;;;9.22;61.79
72892;BME280;61032;50.782;6.818;2024-03-29T04:56:48;98187.31;;;9.20;62.04
72892;BME280;61032;50.782;6.818;2024-03-29T04:57:48;98187.66;;;9.15;61.93
72892;BME280;61032;50.782;6.818;2024-03-29T04:58:48;98188.47;;;9.19;61.60
72892;BME280;61032;50.782;6.818;2024-03-29T04:59:49;98179.88;;;9.20;61.82
72892;BME280;61032;50.782;6.818;2024-03-29T05:00:49;98187.41;;;9.27;61.60
72892;BME280;61032;50.782;6.818;2024-03-29T05:01:50;98187.00;;;9.28;61.44
72892;BME280;61032;50.782;6.818;2024-03-29T05:02:52;98187.06;;;9.32;61.80
72892;BME280;61032;50.782;6.818;2024-03-29T05:03:53;98184.66;;;9.27;62.17
72892;BME280;61032;50.782;6.818;2024-03-29T05:04:53;98187.81;;;9.29;62.17
72892;BME280;61032;50.782;6.818;2024-03-29T05:05:56;98170.97;;;9.30;62.32
72892;BME280;61032;50.782;6.818;2024-03-29T05:06:57;98172.97;;;9.34;62.04
72892;BME280;61032;50.782;6.818;2024-03-29T05:07:58;98184.69;;;9.30;62.49
72892;BME280;61032;50.782;6.818;2024-03-29T05:08:58;98188.97;;;9.28;62.75
72892;BME280;61032;50.782;6.818;2024-03-29T05:09:59;98183.50;;;9.28;62.54
72892;BME280;61032;50.782;6.818;2024-03-29T05:11:00;98190.16;;;9.30;62.98
72892;BME280;61032;50.782;6.818;2024-03-29T05:12:00;98199.94;;;9.28;62.98
72892;BME280;61032;50.782;6.818;2024-03-29T05:13:01;98204.66;;;9.31;63.31
72892;BME280;61032;50.782;6.818;2024-03-29T05:14:01;98203.50;;;9.32;63.07
72892;BME280;61032;50.782;6.818;2024-03-29T05:15:04;98203.97;;;9.41;63.51
72892;BME280;61032;50.782;6.818;2024-03-29T05:16:05;98206.66;;;9.34;63.54
72892;BME280;61032;50.782;6.818;2024-03-29T05:17:05;98215.69;;;9.35;63.90
72892;BME280;61032;50.782;6.818;2024-03-29T05:18:06;98213.31;;;9.37;64.16
72892;BME280;61032;50.782;6.818;2024-03-29T05:19:06;98212.91;;;9.31;64.44
72892;BME280;61032;50.782;6.818;2024-03-29T05:20:07;98210.91;;;9.28;64.70
72892;BME280;61032;50.782;6.818;2024-03-29T05:21:08;98213.22;;;9.26;65.00
72892;BME280;61032;50.782;6.818;2024-03-29T05:22:09;98212.09;;;9.30;64.96
72892;BME280;61032;50.782;6.818;2024-03-29T05:23:09;98208.53;;;9.26;65.17
72892;BME280;61032;50.782;6.818;2024-03-29T05:24:13;98214.81;;;9.27;65.50
72892;BME280;61032;50.782;6.818;2024-03-29T05:25:13;98216.78;;;9.30;65.85
72892;BME280;61032;50.782;6.818;2024-03-29T05:26:14;98211.31;;;9.30;65.62
72892;BME280;61032;50.782;6.818;2024-03-29T05:27:14;98214.81;;;9.27;66.04